createdAt,value
2022-12-01T00:01:18.515Z,49.22
2022-12-01T00:03:45.880Z,57.90
2022-12-01T00:06:15.714Z,54.28
2022-12-01T00:08:43.919Z,45.17
2022-12-01T00:11:12.061Z,43.70
2022-12-01T00:13:40.708Z,58.78
2022-12-01T00:16:12.081Z,41.60
2022-12-01T00:18:39.506Z,52.30
2022-12-01T00:21:14.045Z,37.97
2022-12-01T00:23:43.874Z,45.90
2022-12-01T00:26:11.667Z,33.10
2022-12-01T00:28:40.350Z,42.60
2022-12-01T00:31:08.833Z,36.95
2022-12-01T00:33:36.404Z,41.80
2022-12-01T00:36:05.617Z,21.35
2022-12-01T00:38:33.146Z,40.05
2022-12-01T00:41:00.904Z,44.28
2022-12-01T00:43:28.221Z,26.00
2022-12-01T00:45:57.624Z,48.67
2022-12-01T00:48:25.517Z,48.78
2022-12-01T00:50:54.965Z,45.53
2022-12-01T00:53:22.327Z,48.40
2022-12-01T00:55:50.231Z,36.42
2022-12-01T00:58:17.633Z,50.28
2022-12-01T01:00:45.260Z,35.13
2022-12-01T01:03:13.908Z,37.90
2022-12-01T01:05:43.175Z,40.17
2022-12-01T01:08:11.993Z,39.83
2022-12-01T01:10:40.655Z,39.75
2022-12-01T01:13:08.063Z,43.67
2022-12-01T01:15:36.019Z,34.85
2022-12-01T01:18:03.869Z,45.42
2022-12-01T01:20:34.930Z,40.30
2022-12-01T01:23:02.371Z,32.58
2022-12-01T01:25:32.093Z,43.85
2022-12-01T01:27:59.285Z,34.00
2022-12-01T01:30:27.031Z,38.47
2022-12-01T01:32:54.356Z,38.45
2022-12-01T01:35:21.986Z,41.25
2022-12-01T01:37:50.701Z,41.53
2022-12-01T01:40:18.982Z,35.03
2022-12-01T01:42:46.464Z,33.28
2022-12-01T01:45:20.747Z,31.50
2022-12-01T01:47:50.697Z,38.88
2022-12-01T01:50:22.329Z,37.42
2022-12-01T01:52:55.851Z,31.77
2022-12-01T01:55:23.935Z,22.25
2022-12-01T01:57:51.578Z,37.83
2022-12-01T02:00:20.468Z,38.65
2022-12-01T02:02:49.318Z,35.33
2022-12-01T02:05:20.595Z,38.90
2022-12-01T02:07:48.622Z,43.58
2022-12-01T02:10:18.928Z,36.75
2022-12-01T02:13:05.834Z,37.88
2022-12-01T02:15:41.230Z,29.65
2022-12-01T02:18:23.176Z,34.05
2022-12-01T02:21:28.431Z,39.10
2022-12-01T02:24:37.299Z,33.08
2022-12-01T02:27:12.800Z,33.75
2022-12-01T02:30:09.177Z,30.90
2022-12-01T02:32:49.409Z,40.05
2022-12-01T02:35:24.544Z,27.60
2022-12-01T02:38:03.576Z,40.58
2022-12-01T02:40:36.893Z,32.42
2022-12-01T02:43:13.076Z,34.42
2022-12-01T02:45:47.869Z,25.85
2022-12-01T02:48:22.794Z,40.90
2022-12-01T02:50:52.824Z,29.45
2022-12-01T02:53:22.577Z,31.50
2022-12-01T02:55:52.199Z,44.03
2022-12-01T02:58:20.891Z,32.80
2022-12-01T03:01:10.788Z,38.17
2022-12-01T03:03:55.989Z,36.05
2022-12-01T03:06:33.851Z,34.20
2022-12-01T03:09:10.073Z,33.58
2022-12-01T03:11:44.522Z,37.35
2022-12-01T03:14:23.485Z,34.15
2022-12-01T03:16:53.135Z,38.75
2022-12-01T03:19:29.689Z,29.50
2022-12-01T03:22:04.725Z,35.70
2022-12-01T03:24:34.960Z,39.45
2022-12-01T03:27:03.884Z,46.10
2022-12-01T03:29:34.972Z,39.30
2022-12-01T03:32:07.372Z,47.15
2022-12-01T03:34:41.241Z,39.17
2022-12-01T03:39:40.001Z,36.80
2022-12-01T03:42:13.516Z,34.97
2022-12-01T03:44:46.859Z,38.35
2022-12-01T03:47:18.359Z,37.63
2022-12-01T03:49:50.884Z,43.22
2022-12-01T03:52:30.419Z,42.53
2022-12-01T03:55:07.516Z,43.63
2022-12-01T03:57:41.317Z,42.47
2022-12-01T04:00:10.702Z,46.55
2022-12-01T04:02:38.454Z,45.92
2022-12-01T04:05:08.432Z,42.60
2022-12-01T04:07:35.859Z,41.40
2022-12-01T04:10:04.252Z,38.80
2022-12-01T04:12:31.520Z,42.70
2022-12-01T04:15:00.775Z,36.72
2022-12-01T04:17:29.123Z,39.42
2022-12-01T04:19:56.926Z,41.13
2022-12-01T04:22:26.650Z,38.92
2022-12-01T04:24:54.338Z,36.78
2022-12-01T04:27:21.828Z,36.17
2022-12-01T04:29:50.152Z,37.20
2022-12-01T04:32:17.634Z,35.85
2022-12-01T04:34:45.515Z,37.03
2022-12-01T04:37:12.906Z,36.55
2022-12-01T04:39:42.534Z,35.17
2022-12-01T04:42:10.638Z,40.30
2022-12-01T04:44:38.956Z,38.28
2022-12-01T04:47:07.053Z,38.60
2022-12-01T04:49:35.384Z,41.70
2022-12-01T04:52:02.871Z,40.78
2022-12-01T04:54:30.663Z,36.92
2022-12-01T04:56:59.283Z,36.95
2022-12-01T04:59:27.370Z,33.85
2022-12-01T05:01:54.704Z,36.67
2022-12-01T05:04:22.798Z,42.30
2022-12-01T05:06:50.359Z,43.78
2022-12-01T05:09:18.181Z,38.58
2022-12-01T05:11:45.507Z,35.17
2022-12-01T05:14:14.847Z,42.00
2022-12-01T05:16:42.593Z,40.30
2022-12-01T05:19:10.467Z,50.88
2022-12-01T05:21:37.935Z,43.10
2022-12-01T05:24:06.644Z,46.50
2022-12-01T05:26:34.103Z,39.97
2022-12-01T05:29:02.555Z,41.72
2022-12-01T05:31:31.624Z,43.13
2022-12-01T05:34:00.249Z,40.40
2022-12-01T05:36:27.839Z,43.17
2022-12-01T05:38:55.890Z,41.53
2022-12-01T05:41:23.153Z,38.88
2022-12-01T05:43:51.084Z,45.30
2022-12-01T05:46:18.592Z,46.42
2022-12-01T05:48:48.078Z,34.47
2022-12-01T05:51:16.915Z,40.50
2022-12-01T05:53:44.923Z,37.10
2022-12-01T05:56:12.417Z,39.45
2022-12-01T05:58:40.126Z,38.33
2022-12-01T06:01:07.724Z,35.83
2022-12-01T06:03:35.329Z,35.40
2022-12-01T06:06:04.900Z,37.17
2022-12-01T06:08:32.371Z,34.78
2022-12-01T06:11:00.277Z,37.78
2022-12-01T06:13:30.955Z,32.22
2022-12-01T06:15:59.969Z,38.25
2022-12-01T06:18:28.200Z,37.85
2022-12-01T06:20:56.006Z,37.78
2022-12-01T06:23:30.022Z,39.90
2022-12-01T06:25:58.442Z,33.58
2022-12-01T06:28:25.661Z,37.63
2022-12-01T06:30:57.831Z,33.67
2022-12-01T06:33:28.663Z,38.17
2022-12-01T06:35:59.793Z,40.42
2022-12-01T06:38:31.619Z,40.17
2022-12-01T06:41:00.189Z,35.63
2022-12-01T06:43:27.941Z,41.47
2022-12-01T06:46:01.307Z,40.30
2022-12-01T06:48:29.761Z,42.03
2022-12-01T06:50:58.202Z,38.92
2022-12-01T06:53:25.745Z,38.20
2022-12-01T06:55:55.123Z,39.95
2022-12-01T06:58:22.825Z,40.58
2022-12-01T07:00:52.415Z,38.92
2022-12-01T07:03:19.989Z,45.70
2022-12-01T07:05:55.380Z,37.40
2022-12-01T07:08:22.716Z,44.25
2022-12-01T07:10:59.399Z,39.15
2022-12-01T07:13:32.853Z,40.72
2022-12-01T07:16:02.426Z,44.42
2022-12-01T07:18:29.931Z,47.28
2022-12-01T07:21:00.213Z,37.97
2022-12-01T07:23:27.993Z,41.15
2022-12-01T07:26:01.328Z,46.33
2022-12-01T07:28:28.815Z,42.35
2022-12-01T07:31:02.130Z,45.03
2022-12-01T07:33:29.896Z,36.20
2022-12-01T07:35:58.334Z,44.85
2022-12-01T07:38:27.493Z,45.40
2022-12-01T07:40:55.114Z,43.15
2022-12-01T07:43:23.913Z,46.22
2022-12-01T07:45:51.705Z,50.78
2022-12-01T07:48:19.050Z,39.03
2022-12-01T07:50:47.035Z,38.13
2022-12-01T07:53:20.609Z,39.33
2022-12-01T07:55:49.424Z,46.45
2022-12-01T07:58:16.608Z,43.80
2022-12-01T08:00:46.237Z,40.05
2022-12-01T08:03:13.918Z,40.28
2022-12-01T08:05:41.885Z,38.08
2022-12-01T08:08:09.563Z,43.05
2022-12-01T08:10:37.751Z,43.72
2022-12-01T08:13:05.347Z,42.20
2022-12-01T08:15:33.260Z,39.45
2022-12-01T08:18:02.550Z,38.38
2022-12-01T08:20:30.401Z,38.65
2022-12-01T08:23:00.500Z,49.38
2022-12-01T08:25:28.751Z,43.55
2022-12-01T08:27:56.844Z,41.00
2022-12-01T08:30:24.926Z,43.92
2022-12-01T08:32:53.718Z,46.38
2022-12-01T08:35:23.355Z,40.05
2022-12-01T08:37:52.079Z,39.50
2022-12-01T08:40:19.988Z,42.17
2022-12-01T08:42:47.328Z,36.47
2022-12-01T08:45:15.435Z,43.25
2022-12-01T08:47:42.723Z,42.28
2022-12-01T08:50:10.645Z,38.95
2022-12-01T08:52:39.519Z,42.95
2022-12-01T08:55:10.749Z,50.83
2022-12-01T08:57:38.037Z,49.60
2022-12-01T09:00:06.978Z,45.80
2022-12-01T09:02:34.805Z,45.13
2022-12-01T09:05:03.569Z,47.20
2022-12-01T09:07:31.354Z,51.47
2022-12-01T09:10:00.681Z,45.10
2022-12-01T09:12:29.545Z,45.90
2022-12-01T09:14:57.302Z,35.33
2022-12-01T09:17:24.666Z,51.35
2022-12-01T09:19:52.703Z,46.33
2022-12-01T09:22:20.158Z,41.92
2022-12-01T09:24:47.941Z,41.03
2022-12-01T09:27:16.593Z,42.45
2022-12-01T09:29:44.295Z,44.80
2022-12-01T09:32:11.514Z,45.88
2022-12-01T09:34:39.201Z,43.20
2022-12-01T09:37:06.504Z,41.15
2022-12-01T09:39:34.157Z,46.95
2022-12-01T09:42:09.026Z,40.25
2022-12-01T09:44:43.966Z,44.70
2022-12-01T09:47:18.081Z,42.15
2022-12-01T09:49:53.009Z,45.75
2022-12-01T09:52:21.898Z,38.88
2022-12-01T09:54:49.969Z,45.47
2022-12-01T09:57:28.502Z,40.72
2022-12-01T09:59:59.249Z,48.83
2022-12-01T10:02:33.286Z,42.83
2022-12-01T10:05:04.959Z,42.00
2022-12-01T10:07:36.822Z,41.20
2022-12-01T10:10:12.079Z,41.78
2022-12-01T10:12:43.441Z,41.90
2022-12-01T10:15:30.072Z,46.92
2022-12-01T10:18:07.971Z,43.00
2022-12-01T10:20:44.978Z,47.00
2022-12-01T10:23:31.558Z,45.85
2022-12-01T10:26:03.741Z,42.85
2022-12-01T10:28:53.954Z,46.45
2022-12-01T10:31:31.293Z,38.95
2022-12-01T10:34:01.693Z,43.88
2022-12-01T10:36:32.930Z,44.20
2022-12-01T10:39:02.020Z,38.90
2022-12-01T10:41:33.988Z,40.75
2022-12-01T10:44:04.970Z,38.40
2022-12-01T10:46:41.045Z,43.63
2022-12-01T10:49:10.439Z,44.60
2022-12-01T10:51:51.365Z,43.42
2022-12-01T10:54:19.860Z,41.75
2022-12-01T10:56:49.795Z,37.75
2022-12-01T10:59:26.937Z,39.03
2022-12-01T11:01:58.347Z,42.22
2022-12-01T11:04:36.380Z,44.05
2022-12-01T11:07:04.555Z,37.47
2022-12-01T11:09:32.497Z,43.15
2022-12-01T11:12:15.896Z,45.63
2022-12-01T11:14:47.432Z,45.65
2022-12-01T11:17:29.610Z,39.38
2022-12-01T11:19:57.315Z,40.65
2022-12-01T11:22:27.746Z,41.28
2022-12-01T11:25:01.510Z,48.42
2022-12-01T11:27:32.813Z,45.03
2022-12-01T11:30:02.607Z,44.50
2022-12-01T11:32:35.174Z,40.45
2022-12-01T11:35:06.282Z,42.88
2022-12-01T11:37:39.295Z,46.53
2022-12-01T11:40:13.683Z,44.50
2022-12-01T11:42:42.308Z,40.45
2022-12-01T11:45:27.840Z,41.25
2022-12-01T11:48:02.720Z,38.85
2022-12-01T11:50:32.431Z,45.20
2022-12-01T11:53:00.415Z,41.53
2022-12-01T11:55:31.636Z,41.28
2022-12-01T11:58:02.806Z,47.55
2022-12-01T12:00:41.980Z,44.67
2022-12-01T12:03:21.293Z,38.22
2022-12-01T12:06:31.853Z,45.75
2022-12-01T12:09:03.424Z,46.65
2022-12-01T12:11:43.480Z,42.65
2022-12-01T12:14:29.967Z,43.30
2022-12-01T12:17:18.998Z,37.97
2022-12-01T12:20:27.836Z,30.70
2022-12-01T12:23:05.953Z,33.90
2022-12-01T12:25:47.312Z,28.48
2022-12-01T12:28:27.629Z,24.23
2022-12-01T12:31:08.245Z,18.60
2022-12-01T12:33:53.375Z,21.27
2022-12-01T12:36:32.639Z,21.35
2022-12-01T12:39:16.355Z,21.45
2022-12-01T12:41:46.352Z,25.30
2022-12-01T12:44:32.366Z,22.48
2022-12-01T12:47:09.981Z,22.77
2022-12-01T12:49:44.587Z,22.95
2022-12-01T12:52:18.727Z,22.23
2022-12-01T12:54:50.727Z,23.33
2022-12-01T12:57:29.552Z,21.95
2022-12-01T13:00:02.284Z,22.75
2022-12-01T13:02:36.415Z,26.65
2022-12-01T13:05:09.998Z,22.92
2022-12-01T13:07:44.976Z,26.83
2022-12-01T13:10:22.281Z,23.83
2022-12-01T13:12:56.888Z,25.98
2022-12-01T13:15:25.548Z,26.40
2022-12-01T13:17:57.588Z,24.02
2022-12-01T13:20:28.197Z,21.85
2022-12-01T13:23:00.117Z,21.90
2022-12-01T13:25:31.243Z,27.30
2022-12-01T13:28:02.490Z,24.00
2022-12-01T13:30:30.121Z,23.35
2022-12-01T13:33:00.840Z,23.67
2022-12-01T13:35:31.255Z,26.77
2022-12-01T13:41:14.913Z,22.52
2022-12-01T13:43:53.344Z,23.38
2022-12-01T13:46:26.027Z,22.27
2022-12-01T13:48:55.608Z,30.00
2022-12-01T13:51:23.278Z,23.98
2022-12-01T13:53:58.492Z,25.02
2022-12-01T13:56:39.481Z,27.85
2022-12-01T13:59:40.687Z,22.13
2022-12-01T14:02:16.497Z,17.23
2022-12-01T14:04:44.721Z,18.70
2022-12-01T14:07:35.323Z,22.15
2022-12-01T14:10:25.952Z,28.13
2022-12-01T14:12:58.083Z,19.80
2022-12-01T14:15:36.009Z,27.75
2022-12-01T14:18:20.164Z,19.52
2022-12-01T14:20:49.444Z,23.73
2022-12-01T14:23:23.404Z,24.10
2022-12-01T14:26:01.797Z,21.05
2022-12-01T14:29:19.677Z,21.02
2022-12-01T14:32:19.824Z,25.38
2022-12-01T14:34:52.780Z,21.65
2022-12-01T14:37:25.016Z,24.42
2022-12-01T14:39:57.681Z,21.42
2022-12-01T14:42:33.370Z,19.25
2022-12-01T14:45:04.068Z,17.35
2022-12-01T14:47:42.668Z,21.90
2022-12-01T14:52:47.323Z,22.27
2022-12-01T14:55:18.724Z,26.67
2022-12-01T14:57:49.725Z,20.88
2022-12-01T15:00:20.067Z,23.38
2022-12-01T15:02:54.014Z,26.38
2022-12-01T15:05:24.649Z,25.25
2022-12-01T15:08:06.707Z,23.02
2022-12-01T15:10:50.355Z,22.35
2022-12-01T15:13:23.239Z,20.92
2022-12-01T15:15:52.567Z,22.73
2022-12-01T15:18:29.043Z,28.83
2022-12-01T15:21:00.727Z,31.05
2022-12-01T15:23:28.826Z,25.65
2022-12-01T15:25:56.344Z,27.63
2022-12-01T15:28:31.517Z,26.92
2022-12-01T15:31:00.435Z,32.25
2022-12-01T15:33:36.765Z,24.60
2022-12-01T15:36:06.944Z,28.13
2022-12-01T15:38:37.053Z,27.70
2022-12-01T15:41:28.629Z,27.45
2022-12-01T15:43:56.803Z,13.40
2022-12-01T15:46:31.198Z,20.13
2022-12-01T15:49:18.418Z,13.95
2022-12-01T15:51:46.951Z,20.67
2022-12-01T15:54:20.965Z,21.27
2022-12-01T15:56:53.409Z,21.20
2022-12-01T15:59:33.383Z,29.17
2022-12-01T16:02:07.094Z,23.27
2022-12-01T16:04:36.985Z,24.67
2022-12-01T16:07:07.233Z,23.92
2022-12-01T16:09:36.724Z,24.35
2022-12-01T16:12:20.853Z,24.45
2022-12-01T16:14:54.674Z,22.92
2022-12-01T16:17:23.193Z,22.88
2022-12-01T16:20:16.682Z,23.50
2022-12-01T16:22:46.177Z,19.80
2022-12-01T16:25:18.974Z,16.92
2022-12-01T16:27:54.679Z,25.27
2022-12-01T16:30:25.066Z,21.08
2022-12-01T16:33:01.356Z,16.38
2022-12-01T16:35:32.003Z,18.92
2022-12-01T16:38:00.544Z,22.15
2022-12-01T16:40:28.340Z,22.75
2022-12-01T16:42:55.789Z,22.58
2022-12-01T16:45:24.112Z,22.05
2022-12-01T16:47:51.515Z,17.33
2022-12-01T16:50:21.696Z,25.42
2022-12-01T16:52:50.342Z,20.55
2022-12-01T16:55:36.445Z,20.08
2022-12-01T17:00:31.858Z,19.70
2022-12-01T17:02:59.994Z,19.48
2022-12-01T17:05:27.899Z,19.17
2022-12-01T17:07:56.768Z,25.63
2022-12-01T17:10:24.858Z,23.38
2022-12-01T17:12:52.448Z,22.98
2022-12-01T17:15:20.484Z,20.60
2022-12-01T17:17:47.842Z,20.90
2022-12-01T17:20:16.120Z,22.15
2022-12-01T17:22:43.784Z,21.75
2022-12-01T17:25:13.023Z,20.58
2022-12-01T17:27:40.434Z,21.73
2022-12-01T17:30:12.167Z,24.05
2022-12-01T17:32:39.475Z,28.35
2022-12-01T17:35:08.163Z,24.70
2022-12-01T17:37:35.665Z,23.02
2022-12-01T17:40:03.858Z,24.35
2022-12-01T17:42:33.554Z,28.73
2022-12-01T17:45:01.643Z,24.98
2022-12-01T17:47:29.442Z,29.88
2022-12-01T17:49:57.360Z,24.90
2022-12-01T17:52:28.330Z,26.42
2022-12-01T17:54:56.689Z,30.17
2022-12-01T17:57:24.524Z,25.95
2022-12-01T17:59:53.781Z,22.52
2022-12-01T18:02:21.309Z,26.55
2022-12-01T18:04:49.923Z,25.45
2022-12-01T18:07:17.771Z,24.98
2022-12-01T18:09:45.854Z,23.67
2022-12-01T18:12:13.609Z,25.73
2022-12-01T18:14:41.717Z,23.20
2022-12-01T18:17:10.819Z,29.05
2022-12-01T18:19:38.933Z,27.27
2022-12-01T18:22:06.491Z,32.50
2022-12-01T18:24:34.769Z,31.80
2022-12-01T18:27:02.094Z,31.48
2022-12-01T18:29:29.932Z,33.00
2022-12-01T18:31:58.844Z,33.75
2022-12-01T18:34:28.820Z,25.92
2022-12-01T18:36:56.715Z,25.88
2022-12-01T18:39:24.650Z,25.75
2022-12-01T18:41:51.986Z,24.58
2022-12-01T18:44:19.603Z,20.13
2022-12-01T18:46:47.554Z,16.52
2022-12-01T18:49:16.035Z,21.40
2022-12-01T18:51:45.064Z,17.88
2022-12-01T18:54:14.565Z,22.23
2022-12-01T18:56:42.504Z,26.13
2022-12-01T18:59:11.712Z,22.88
2022-12-01T19:01:41.302Z,22.65
2022-12-01T19:04:10.117Z,27.85
2022-12-01T19:06:39.452Z,23.55
2022-12-01T19:09:10.911Z,27.08
2022-12-01T19:11:39.526Z,22.35
2022-12-01T19:14:08.279Z,25.27
2022-12-01T19:16:35.774Z,26.27
2022-12-01T19:19:04.161Z,21.67
2022-12-01T19:21:31.613Z,21.83
2022-12-01T19:23:59.489Z,17.45
2022-12-01T19:26:28.302Z,14.15
2022-12-01T19:28:56.092Z,17.52
2022-12-01T19:31:24.889Z,24.30
2022-12-01T19:33:54.004Z,21.27
2022-12-01T19:36:23.453Z,23.20
2022-12-01T19:38:51.780Z,19.40
2022-12-01T19:41:20.247Z,20.00
2022-12-01T19:43:49.531Z,21.48
2022-12-01T19:46:19.281Z,18.60
2022-12-01T19:48:47.873Z,15.93
2022-12-01T19:51:19.765Z,16.77
2022-12-01T19:53:47.875Z,18.60
2022-12-01T19:56:15.372Z,20.35
2022-12-01T19:58:43.694Z,14.77
2022-12-01T20:01:14.448Z,21.08
2022-12-01T20:03:44.668Z,18.73
2022-12-01T20:06:14.126Z,15.88
2022-12-01T20:08:42.628Z,17.77
2022-12-01T20:11:10.660Z,22.27
2022-12-01T20:13:40.827Z,17.83
2022-12-01T20:16:10.609Z,19.45
2022-12-01T20:18:40.985Z,21.75
2022-12-01T20:21:10.739Z,18.25
2022-12-01T20:23:39.115Z,20.95
2022-12-01T20:26:07.877Z,21.20
2022-12-01T20:28:37.147Z,22.42
2022-12-01T20:31:09.850Z,14.50
2022-12-01T20:33:41.245Z,17.75
2022-12-01T20:36:09.379Z,17.08
2022-12-01T20:38:38.270Z,15.70
2022-12-01T20:41:07.136Z,17.05
2022-12-01T20:43:35.848Z,13.50
2022-12-01T20:46:06.612Z,13.48
2022-12-01T20:48:34.726Z,16.90
2022-12-01T20:51:05.771Z,20.88
2022-12-01T20:53:34.697Z,18.00
2022-12-01T20:56:03.477Z,21.30
2022-12-01T20:58:37.034Z,20.63
2022-12-01T21:01:08.396Z,15.82
2022-12-01T21:03:38.128Z,12.90
2022-12-01T21:06:07.543Z,17.35
2022-12-01T21:08:37.458Z,19.95
2022-12-01T21:11:06.405Z,19.70
2022-12-01T21:13:35.273Z,17.67
2022-12-01T21:16:07.020Z,15.00
2022-12-01T21:18:42.362Z,15.00
2022-12-01T21:21:21.464Z,14.77
2022-12-01T21:24:00.185Z,16.25
2022-12-01T21:26:27.455Z,16.58
2022-12-01T21:28:59.064Z,16.77
2022-12-01T21:31:26.920Z,18.13
2022-12-01T21:33:56.180Z,15.07
2022-12-01T21:36:29.024Z,21.58
2022-12-01T21:39:12.893Z,17.75
2022-12-01T21:41:40.436Z,18.67
2022-12-01T21:44:13.710Z,20.80
2022-12-01T21:49:18.094Z,12.32
2022-12-01T21:51:47.890Z,14.07
2022-12-01T21:54:19.726Z,17.20
2022-12-01T21:56:48.618Z,12.70
2022-12-01T21:59:19.586Z,14.20
2022-12-01T22:01:48.176Z,14.57
2022-12-01T22:04:18.907Z,14.75
2022-12-01T22:06:49.830Z,15.18
2022-12-01T22:09:24.723Z,18.85
2022-12-01T22:11:54.592Z,15.32
2022-12-01T22:14:24.236Z,14.57
2022-12-01T22:16:56.838Z,11.85
2022-12-01T22:19:30.855Z,16.02
2022-12-01T22:22:03.537Z,18.30
2022-12-01T22:24:40.454Z,11.60
2022-12-01T22:27:29.977Z,11.75
2022-12-01T22:30:00.592Z,18.40
2022-12-01T22:32:41.286Z,11.60
2022-12-01T22:35:28.581Z,14.50
2022-12-01T22:38:13.708Z,14.15
2022-12-01T22:40:48.496Z,13.10
2022-12-01T22:43:41.654Z,18.60
2022-12-01T22:46:23.534Z,14.85
2022-12-01T22:48:53.059Z,15.45
2022-12-01T22:51:37.283Z,15.32
2022-12-01T22:54:28.966Z,14.13
2022-12-01T22:57:11.803Z,13.93
2022-12-01T22:59:42.129Z,17.45
2022-12-01T23:02:20.524Z,16.58
2022-12-01T23:04:51.023Z,11.77
2022-12-01T23:07:38.379Z,15.05
2022-12-01T23:10:17.932Z,15.10
2022-12-01T23:12:47.675Z,14.25
2022-12-01T23:15:32.419Z,16.60
2022-12-01T23:18:11.835Z,16.90
2022-12-01T23:20:40.737Z,16.25
2022-12-01T23:23:14.799Z,16.02
2022-12-01T23:25:44.748Z,14.20
2022-12-01T23:28:15.533Z,20.60
2022-12-01T23:30:51.185Z,16.67
2022-12-01T23:33:21.486Z,14.15
2022-12-01T23:35:53.814Z,11.30
2022-12-01T23:38:23.988Z,17.08
2022-12-01T23:41:00.575Z,16.25
2022-12-01T23:43:31.953Z,13.18
2022-12-01T23:46:04.309Z,16.42
2022-12-01T23:48:36.488Z,12.98
2022-12-01T23:51:05.038Z,17.83
2022-12-01T23:53:33.567Z,13.95
2022-12-01T23:56:05.373Z,15.30
2022-12-01T23:58:34.602Z,14.98
